Time;durP1;ratioP1;P1;durP2;ratioP2;P2;SDS_P1;SDS_P2;PMS_P1;PMS_P2;Temp;Humidity;BMP_temperature;BMP_pressure;BME280_temperature;BME280_humidity;BME280_pressure;Samples;Min_cycle;Max_cycle;Signal;HPM_P1;HPM_P2
2023/04/12 00:01:15;;;;;;;0.50;0.30;;;11.70;99.90;;;;;;4994090;28;20236;-65
2023/04/12 00:03:49;;;;;;;0.60;0.40;;;11.60;99.90;;;;;;5008058;28;20209;-64
2023/04/12 00:06:17;;;;;;;0.60;0.40;;;11.60;99.90;;;;;;5004742;28;20216;-65
2023/04/12 00:08:46;;;;;;;0.50;0.32;;;11.60;99.90;;;;;;4995302;28;20239;-65
2023/04/12 00:11:13;;;;;;;0.60;0.50;;;11.60;99.90;;;;;;5000222;28;20221;-65
2023/04/12 00:13:41;;;;;;;0.50;0.40;;;11.60;99.90;;;;;;5009584;28;20205;-65
2023/04/12 00:16:14;;;;;;;0.50;0.40;;;11.60;99.90;;;;;;5010542;28;20280;-65
2023/04/12 00:18:44;;;;;;;0.50;0.30;;;11.60;99.90;;;;;;5006907;28;20281;-65
2023/04/12 00:21:12;;;;;;;0.50;0.30;;;11.60;99.90;;;;;;5009629;28;20225;-65
2023/04/12 00:23:40;;;;;;;0.50;0.38;;;11.60;99.90;;;;;;5008002;28;20236;-65
2023/04/12 00:26:08;;;;;;;0.50;0.30;;;11.60;99.90;;;;;;5007465;28;20613;-65
2023/04/12 00:28:36;;;;;;;0.50;0.30;;;11.50;99.90;;;;;;5005711;28;20227;-65
2023/04/12 00:31:04;;;;;;;0.50;0.30;;;11.50;99.90;;;;;;5008905;28;20312;-65
2023/04/12 00:33:34;;;;;;;0.85;0.50;;;11.40;99.90;;;;;;5008350;28;20206;-65
2023/04/12 00:36:02;;;;;;;0.60;0.40;;;11.40;99.90;;;;;;5012337;28;20261;-65
2023/04/12 00:38:30;;;;;;;0.75;0.60;;;11.30;99.90;;;;;;5012034;28;20212;-66
2023/04/12 00:40:57;;;;;;;0.55;0.40;;;11.30;99.90;;;;;;5000413;28;20232;-66
2023/04/12 00:43:26;;;;;;;0.80;0.60;;;11.10;99.90;;;;;;5003382;28;20216;-65
2023/04/12 00:45:56;;;;;;;0.50;0.40;;;11.00;99.90;;;;;;5007132;28;20205;-65
2023/04/12 00:48:25;;;;;;;0.70;0.63;;;11.10;99.90;;;;;;5011503;28;20221;-65
2023/04/12 00:50:56;;;;;;;0.50;0.40;;;11.00;99.90;;;;;;5000037;28;20300;-65
2023/04/12 00:53:24;;;;;;;0.50;0.40;;;10.80;99.90;;;;;;5004002;28;20232;-64
2023/04/12 00:55:52;;;;;;;0.50;0.40;;;10.60;99.90;;;;;;5008498;28;20639;-64
2023/04/12 00:58:23;;;;;;;0.60;0.40;;;10.50;99.90;;;;;;5013232;28;20197;-64
2023/04/12 01:00:53;;;;;;;0.60;0.50;;;10.30;99.90;;;;;;5011468;28;20225;-65
2023/04/12 01:03:22;;;;;;;0.77;0.43;;;10.10;99.90;;;;;;5008409;28;20205;-64
2023/04/12 01:06:04;;;;;;;0.70;0.50;;;10.10;99.90;;;;;;5012365;28;20263;-64
2023/04/12 01:08:44;;;;;;;0.50;0.40;;;9.90;99.90;;;;;;5013690;28;20215;-64
2023/04/12 01:11:19;;;;;;;0.70;0.50;;;9.80;99.90;;;;;;5002075;28;20237;-64
2023/04/12 01:13:55;;;;;;;0.50;0.40;;;9.60;99.90;;;;;;5009296;28;20645;-66
2023/04/12 01:16:31;;;;;;;0.60;0.50;;;9.70;99.90;;;;;;5013072;28;20209;-65
2023/04/12 01:19:04;;;;;;;0.60;0.40;;;9.70;99.90;;;;;;5005312;28;20295;-64
2023/04/12 01:21:42;;;;;;;0.50;0.50;;;9.60;99.90;;;;;;5005365;28;20765;-65
2023/04/12 01:24:23;;;;;;;0.60;0.40;;;9.50;99.90;;;;;;5009401;28;20204;-65
2023/04/12 01:26:51;;;;;;;0.52;0.40;;;9.40;99.90;;;;;;5013094;28;20600;-64
2023/04/12 01:29:24;;;;;;;0.60;0.50;;;9.20;99.90;;;;;;5002132;28;20225;-64
2023/04/12 01:31:56;;;;;;;0.60;0.50;;;9.20;99.90;;;;;;4984125;28;20226;-65
2023/04/12 01:34:28;;;;;;;1.00;0.90;;;9.10;99.90;;;;;;4993598;28;20856;-65
2023/04/12 01:36:58;;;;;;;0.70;0.60;;;8.90;99.90;;;;;;4984537;28;20288;-65
2023/04/12 01:39:26;;;;;;;0.90;0.68;;;9.20;99.90;;;;;;4987376;28;20312;-64
2023/04/12 01:41:54;;;;;;;0.77;0.50;;;9.30;99.90;;;;;;4984578;28;20226;-64
2023/04/12 01:44:23;;;;;;;0.50;0.40;;;9.10;99.90;;;;;;4993409;28;20635;-65
2023/04/12 01:46:52;;;;;;;0.70;0.40;;;9.00;99.90;;;;;;4992802;28;20670;-64
2023/04/12 01:49:23;;;;;;;0.70;0.60;;;8.90;99.90;;;;;;4992848;28;20222;-65
2023/04/12 01:51:58;;;;;;;0.60;0.40;;;9.10;99.90;;;;;;4992841;28;20674;-64
2023/04/12 01:54:29;;;;;;;0.70;0.60;;;9.20;99.90;;;;;;4987150;28;20225;-65
2023/04/12 01:57:00;;;;;;;0.50;0.40;;;9.10;99.90;;;;;;4990356;28;20217;-65
2023/04/12 01:59:34;;;;;;;0.50;0.30;;;9.20;99.90;;;;;;4982489;28;20268;-65
2023/04/12 02:02:03;;;;;;;0.55;0.35;;;9.20;99.90;;;;;;4981867;28;20569;-64
2023/04/12 02:04:32;;;;;;;0.52;0.35;;;9.00;99.90;;;;;;4976688;28;20211;-64
2023/04/12 02:07:00;;;;;;;0.50;0.30;;;9.10;99.90;;;;;;4988858;28;20301;-65
2023/04/12 02:09:30;;;;;;;0.70;0.40;;;9.20;99.90;;;;;;4981750;28;20251;-65
2023/04/12 02:11:57;;;;;;;0.60;0.40;;;9.20;99.90;;;;;;4985539;28;20214;-64
2023/04/12 02:14:25;;;;;;;0.50;0.38;;;9.10;99.90;;;;;;4986453;28;20701;-65
2023/04/12 02:16:56;;;;;;;0.60;0.47;;;9.00;99.90;;;;;;4989356;28;20283;-64
2023/04/12 02:19:25;;;;;;;0.60;0.50;;;8.90;99.90;;;;;;4989079;28;20325;-65
2023/04/12 02:21:52;;;;;;;0.50;0.30;;;8.90;99.90;;;;;;4982873;28;20233;-65
2023/04/12 02:24:21;;;;;;;0.60;0.40;;;8.90;99.90;;;;;;4984736;28;20218;-65
2023/04/12 02:26:49;;;;;;;0.65;0.40;;;8.80;99.90;;;;;;4985906;28;20233;-64
2023/04/12 02:29:17;;;;;;;0.50;0.40;;;8.90;99.90;;;;;;4984995;28;20213;-65
2023/04/12 02:31:45;;;;;;;0.70;0.63;;;9.00;99.90;;;;;;5006690;28;20721;-64
2023/04/12 02:34:14;;;;;;;0.50;0.40;;;8.80;99.90;;;;;;5005410;28;20240;-65
2023/04/12 02:36:46;;;;;;;0.52;0.40;;;8.90;99.90;;;;;;5000222;28;20293;-65
2023/04/12 02:39:17;;;;;;;1.00;0.60;;;8.90;99.90;;;;;;4982132;28;20292;-65
2023/04/12 02:41:45;;;;;;;0.70;0.60;;;9.00;99.90;;;;;;5006430;28;20231;-65
2023/04/12 02:44:13;;;;;;;0.50;0.30;;;9.00;99.90;;;;;;5005878;28;20206;-65
2023/04/12 02:46:41;;;;;;;0.60;0.50;;;8.90;99.90;;;;;;5007311;28;21527;-66
2023/04/12 02:49:09;;;;;;;0.60;0.45;;;9.00;99.90;;;;;;5007140;28;20208;-65
2023/04/12 02:51:38;;;;;;;0.70;0.65;;;8.70;99.90;;;;;;5007635;28;20201;-64
2023/04/12 02:54:06;;;;;;;0.50;0.40;;;8.60;99.90;;;;;;4997674;28;20210;-65
2023/04/12 02:56:35;;;;;;;0.70;0.50;;;8.60;99.90;;;;;;5005919;28;20292;-65
2023/04/12 02:59:03;;;;;;;0.60;0.50;;;8.60;99.90;;;;;;5003529;28;20206;-64
2023/04/12 03:01:32;;;;;;;0.50;0.40;;;8.80;99.90;;;;;;5005943;28;20878;-64
2023/04/12 03:04:00;;;;;;;0.50;0.40;;;8.80;99.90;;;;;;5007897;28;21644;-65
2023/04/12 03:06:30;;;;;;;0.82;0.82;;;8.70;99.90;;;;;;5003997;28;20632;-64
2023/04/12 03:09:00;;;;;;;0.50;0.40;;;8.70;99.90;;;;;;5003565;28;20204;-64
2023/04/12 03:11:28;;;;;;;0.50;0.40;;;8.60;99.90;;;;;;5004691;28;20257;-64
2023/04/12 03:13:56;;;;;;;1.08;0.57;;;8.50;99.90;;;;;;5003452;28;20215;-64
2023/04/12 03:16:28;;;;;;;0.60;0.50;;;8.40;99.90;;;;;;5002532;28;20213;-64
2023/04/12 03:18:56;;;;;;;0.60;0.47;;;8.40;99.90;;;;;;5006984;28;20266;-65
2023/04/12 03:21:24;;;;;;;0.60;0.50;;;8.30;99.90;;;;;;5007395;28;20324;-65
2023/04/12 03:23:52;;;;;;;0.60;0.50;;;8.30;99.90;;;;;;5007697;28;20209;-65
2023/04/12 03:26:21;;;;;;;0.82;0.68;;;8.30;99.90;;;;;;5001200;28;20204;-65
2023/04/12 03:28:49;;;;;;;0.80;0.63;;;8.20;99.90;;;;;;5004667;28;20213;-65
2023/04/12 03:31:19;;;;;;;0.60;0.40;;;8.10;99.90;;;;;;5006599;28;20229;-65
2023/04/12 03:33:47;;;;;;;0.60;0.40;;;8.10;99.90;;;;;;5003021;28;20212;-65
2023/04/12 03:36:15;;;;;;;0.73;0.63;;;8.00;99.90;;;;;;4999983;28;20212;-65
2023/04/12 03:38:44;;;;;;;0.60;0.43;;;8.10;99.90;;;;;;4996880;28;20224;-64
2023/04/12 03:41:12;;;;;;;0.70;0.70;;;8.20;99.90;;;;;;5005073;28;20701;-65
2023/04/12 03:43:41;;;;;;;0.77;0.77;;;8.20;99.90;;;;;;5008279;28;20293;-64
2023/04/12 03:46:09;;;;;;;0.60;0.40;;;8.10;99.90;;;;;;5004308;28;20240;-64
2023/04/12 03:48:37;;;;;;;0.63;0.63;;;8.00;99.90;;;;;;5003136;28;20302;-65
2023/04/12 03:51:07;;;;;;;0.80;0.60;;;8.00;99.90;;;;;;5002998;28;20652;-64
2023/04/12 03:53:35;;;;;;;0.60;0.50;;;7.90;99.90;;;;;;5009124;28;20202;-64
2023/04/12 03:56:04;;;;;;;0.70;0.60;;;7.80;99.90;;;;;;5000963;28;20240;-64
2023/04/12 03:58:32;;;;;;;0.85;0.60;;;7.80;99.90;;;;;;5006629;28;20774;-64
2023/04/12 04:01:04;;;;;;;0.70;0.60;;;7.80;99.90;;;;;;5006275;28;20247;-64
2023/04/12 04:03:33;;;;;;;0.90;0.80;;;7.90;99.90;;;;;;5002397;28;20236;-65
2023/04/12 04:06:03;;;;;;;1.00;0.85;;;7.80;99.90;;;;;;4997765;28;20642;-64
2023/04/12 04:08:31;;;;;;;0.70;0.60;;;7.80;99.90;;;;;;5000384;28;20225;-65
2023/04/12 04:11:00;;;;;;;0.80;0.75;;;7.80;99.90;;;;;;4997902;28;20228;-64
2023/04/12 04:13:28;;;;;;;0.80;0.80;;;7.80;99.90;;;;;;5005101;28;20258;-64
2023/04/12 04:16:03;;;;;;;1.00;0.77;;;7.80;99.90;;;;;;5002260;28;20287;-65
2023/04/12 04:18:31;;;;;;;0.88;0.80;;;7.80;99.90;;;;;;5004847;28;20255;-64
2023/04/12 04:20:59;;;;;;;0.75;0.70;;;7.70;99.90;;;;;;5006128;28;20225;-64
2023/04/12 04:23:27;;;;;;;1.63;0.80;;;7.70;99.90;;;;;;5004260;28;20275;-64
2023/04/12 04:25:56;;;;;;;0.80;0.80;;;7.80;99.90;;;;;;4998277;28;20208;-65
2023/04/12 04:28:24;;;;;;;1.05;0.90;;;7.90;99.90;;;;;;5004184;28;20241;-64
2023/04/12 04:30:54;;;;;;;0.70;0.63;;;7.90;99.90;;;;;;5003533;28;20656;-65
2023/04/12 04:33:23;;;;;;;1.17;0.80;;;7.80;99.90;;;;;;5005477;28;20286;-64
2023/04/12 04:35:51;;;;;;;0.90;0.88;;;8.00;99.90;;;;;;5008586;28;20292;-64
2023/04/12 04:38:24;;;;;;;1.02;0.93;;;8.10;99.90;;;;;;5003651;28;20279;-65
2023/04/12 04:40:53;;;;;;;0.73;0.68;;;8.10;99.90;;;;;;5004017;28;20229;-64
2023/04/12 04:43:21;;;;;;;1.00;0.90;;;8.00;99.90;;;;;;5010211;28;20293;-64
2023/04/12 04:45:53;;;;;;;1.08;0.75;;;8.00;99.90;;;;;;5010552;28;20216;-64
2023/04/12 04:48:22;;;;;;;0.90;0.70;;;8.00;99.90;;;;;;5000887;28;20868;-64
2023/04/12 04:50:51;;;;;;;1.90;1.77;;;7.90;99.90;;;;;;4998717;28;20295;-64
2023/04/12 04:53:21;;;;;;;1.10;0.85;;;8.00;99.90;;;;;;5003858;28;20226;-63
2023/04/12 04:55:49;;;;;;;1.15;1.08;;;7.90;99.90;;;;;;5003869;28;20197;-64
2023/04/12 04:58:17;;;;;;;0.70;0.60;;;7.80;99.90;;;;;;5009147;28;20209;-64
2023/04/12 05:00:44;;;;;;;0.70;0.65;;;7.80;99.90;;;;;;5008298;28;20704;-64
2023/04/12 05:03:13;;;;;;;0.63;0.47;;;7.80;99.90;;;;;;5010168;28;20221;-65
2023/04/12 05:05:42;;;;;;;0.90;0.77;;;8.00;99.90;;;;;;5008957;28;20216;-64
2023/04/12 05:08:10;;;;;;;0.60;0.50;;;7.90;99.90;;;;;;5002368;28;20228;-65
2023/04/12 05:10:37;;;;;;;0.65;0.65;;;7.90;99.90;;;;;;5012374;28;20311;-65
2023/04/12 05:13:05;;;;;;;0.60;0.50;;;8.00;99.90;;;;;;5001516;28;20221;-64
2023/04/12 05:15:33;;;;;;;0.70;0.50;;;8.00;99.90;;;;;;5004808;28;20210;-64
2023/04/12 05:18:04;;;;;;;0.60;0.50;;;7.90;99.90;;;;;;4999591;28;20624;-64
2023/04/12 05:20:32;;;;;;;0.70;0.70;;;7.90;99.90;;;;;;5008294;28;20263;-64
2023/04/12 05:23:01;;;;;;;1.10;0.75;;;7.90;99.90;;;;;;5010970;28;20256;-64
2023/04/12 05:25:29;;;;;;;0.60;0.50;;;7.90;99.90;;;;;;5004032;28;20209;-64
2023/04/12 05:27:57;;;;;;;0.90;0.70;;;8.00;99.90;;;;;;5001277;28;20237;-64
2023/04/12 05:30:25;;;;;;;0.50;0.47;;;8.10;99.90;;;;;;5008239;28;20259;-63
2023/04/12 05:32:53;;;;;;;0.60;0.47;;;8.00;99.90;;;;;;5004082;28;20197;-64
2023/04/12 05:35:21;;;;;;;0.60;0.60;;;8.20;99.90;;;;;;4999123;28;20223;-67
2023/04/12 05:37:49;;;;;;;0.50;0.40;;;8.10;99.90;;;;;;5001439;28;20208;-66
2023/04/12 05:40:18;;;;;;;0.60;0.40;;;8.00;99.90;;;;;;5003540;28;20222;-65
2023/04/12 05:42:46;;;;;;;0.80;0.60;;;8.00;99.90;;;;;;5002782;28;20304;-66
2023/04/12 05:45:14;;;;;;;0.50;0.40;;;8.00;99.90;;;;;;5000817;28;20801;-65
2023/04/12 05:47:42;;;;;;;1.15;0.60;;;8.00;99.90;;;;;;4999785;28;20213;-65
2023/04/12 05:50:11;;;;;;;1.00;0.90;;;7.90;99.90;;;;;;4998936;28;20243;-65
2023/04/12 05:52:39;;;;;;;0.70;0.55;;;7.90;99.90;;;;;;5001692;28;20209;-66
2023/04/12 05:55:08;;;;;;;0.75;0.60;;;7.90;99.90;;;;;;5000527;28;20804;-66
2023/04/12 05:57:37;;;;;;;0.70;0.70;;;8.00;99.90;;;;;;5003330;28;20263;-66
2023/04/12 06:00:12;;;;;;;2.25;0.90;;;8.00;99.90;;;;;;5000690;28;20249;-65
2023/04/12 06:02:40;;;;;;;0.60;0.50;;;8.00;99.90;;;;;;5003155;28;20584;-66
2023/04/12 06:05:09;;;;;;;0.80;0.60;;;8.00;99.90;;;;;;5003902;28;20209;-66
2023/04/12 06:07:38;;;;;;;0.60;0.50;;;8.00;99.90;;;;;;4998770;28;20208;-65
2023/04/12 06:10:07;;;;;;;0.70;0.50;;;8.20;99.90;;;;;;5000597;28;20260;-65
2023/04/12 06:12:36;;;;;;;1.23;0.90;;;8.20;99.90;;;;;;4999480;28;20214;-65
2023/04/12 06:15:06;;;;;;;0.50;0.40;;;8.10;99.90;;;;;;5002931;28;20213;-66
2023/04/12 06:17:34;;;;;;;0.60;0.50;;;8.10;99.90;;;;;;5002173;28;20237;-66
2023/04/12 06:20:03;;;;;;;1.20;0.40;;;8.10;99.90;;;;;;5001085;28;20717;-67
2023/04/12 06:22:32;;;;;;;0.50;0.45;;;8.20;99.90;;;;;;5000000;28;20288;-66
2023/04/12 06:25:00;;;;;;;0.50;0.40;;;8.20;99.90;;;;;;4999830;28;20222;-63
2023/04/12 06:27:27;;;;;;;3.42;1.20;;;8.30;99.90;;;;;;5002314;28;20212;-65
2023/04/12 06:29:57;;;;;;;0.50;0.40;;;8.30;99.90;;;;;;5001841;28;20274;-66
2023/04/12 06:32:25;;;;;;;0.60;0.40;;;8.20;99.90;;;;;;5001713;28;20289;-67
2023/04/12 06:34:53;;;;;;;1.17;1.08;;;8.30;99.90;;;;;;5002679;28;20211;-66
2023/04/12 06:37:21;;;;;;;0.50;0.40;;;8.20;99.90;;;;;;5003218;28;20325;-66
2023/04/12 06:39:49;;;;;;;1.30;1.20;;;8.10;99.90;;;;;;5001172;28;20232;-65
2023/04/12 06:42:17;;;;;;;0.60;0.60;;;8.20;99.90;;;;;;5002071;28;20245;-66
2023/04/12 06:44:45;;;;;;;0.63;0.45;;;8.10;99.90;;;;;;5000872;28;20247;-65
2023/04/12 06:47:14;;;;;;;1.05;0.52;;;8.10;99.90;;;;;;5001745;28;20215;-65
2023/04/12 06:49:42;;;;;;;0.70;0.70;;;8.00;99.90;;;;;;5000655;28;20233;-66
2023/04/12 06:52:10;;;;;;;0.70;0.60;;;8.00;99.90;;;;;;5002752;28;20246;-66
2023/04/12 06:54:39;;;;;;;0.70;0.70;;;8.00;99.90;;;;;;5000242;28;20291;-67
2023/04/12 06:57:10;;;;;;;0.88;0.60;;;8.00;99.90;;;;;;5001771;28;20238;-67
2023/04/12 06:59:37;;;;;;;0.50;0.40;;;8.10;99.90;;;;;;5002210;28;20238;-65
2023/04/12 07:02:06;;;;;;;0.70;0.40;;;8.00;99.90;;;;;;5002019;28;20764;-66
2023/04/12 07:04:36;;;;;;;0.70;0.50;;;8.00;99.90;;;;;;5001796;28;20670;-67
2023/04/12 07:07:04;;;;;;;0.60;0.50;;;8.00;99.90;;;;;;4999835;28;20570;-66
2023/04/12 07:09:32;;;;;;;0.50;0.40;;;8.00;99.90;;;;;;5002259;28;20236;-67
2023/04/12 07:12:01;;;;;;;0.70;0.60;;;8.10;99.90;;;;;;5000708;28;20597;-66
2023/04/12 07:14:29;;;;;;;0.60;0.60;;;8.10;99.90;;;;;;5001835;28;20748;-65
2023/04/12 07:16:56;;;;;;;0.60;0.57;;;8.10;99.90;;;;;;4999208;28;20209;-65
2023/04/12 07:19:25;;;;;;;0.60;0.40;;;8.10;99.90;;;;;;5001540;28;20236;-65
2023/04/12 07:21:54;;;;;;;0.70;0.50;;;8.10;99.90;;;;;;4998868;28;20259;-66
2023/04/12 07:24:22;;;;;;;0.50;0.40;;;8.10;99.90;;;;;;5001566;28;20222;-67
2023/04/12 07:26:49;;;;;;;0.50;0.38;;;8.10;99.90;;;;;;4999044;28;20224;-66
2023/04/12 07:29:17;;;;;;;0.50;0.35;;;8.10;99.90;;;;;;4997786;28;20284;-66
2023/04/12 07:31:45;;;;;;;0.88;0.63;;;8.10;99.90;;;;;;4998814;28;20332;-65
2023/04/12 07:34:13;;;;;;;0.60;0.50;;;8.10;99.90;;;;;;4999825;28;20288;-64
2023/04/12 07:36:42;;;;;;;1.38;0.60;;;8.10;99.90;;;;;;4999575;28;20205;-64
2023/04/12 07:39:12;;;;;;;0.50;0.40;;;8.20;99.90;;;;;;4997971;28;20208;-64
2023/04/12 07:41:41;;;;;;;0.60;0.50;;;8.10;99.90;;;;;;4998955;28;20285;-63
2023/04/12 07:44:09;;;;;;;0.90;0.45;;;8.20;99.90;;;;;;4996946;28;20210;-64
2023/04/12 07:46:36;;;;;;;0.50;0.40;;;8.30;99.90;;;;;;4999756;28;20219;-64
2023/04/12 07:49:04;;;;;;;0.68;0.68;;;8.30;99.90;;;;;;5002854;28;20289;-64
2023/04/12 07:51:32;;;;;;;0.60;0.50;;;8.30;99.90;;;;;;5000390;28;20324;-64
2023/04/12 07:54:00;;;;;;;1.90;0.45;;;8.40;99.90;;;;;;5000351;28;20210;-64
2023/04/12 07:56:29;;;;;;;0.50;0.30;;;8.50;99.90;;;;;;5000744;28;20219;-64
2023/04/12 07:58:57;;;;;;;1.42;0.47;;;8.40;99.90;;;;;;5002482;28;20209;-64
2023/04/12 08:01:25;;;;;;;1.55;0.47;;;8.40;99.90;;;;;;4995517;28;20232;-63
2023/04/12 08:03:53;;;;;;;0.60;0.40;;;8.40;99.90;;;;;;4999149;28;20314;-64
2023/04/12 08:06:21;;;;;;;0.60;0.47;;;8.50;99.90;;;;;;5002662;28;20233;-65
2023/04/12 08:08:49;;;;;;;0.60;0.60;;;8.60;99.90;;;;;;5007641;28;20582;-65
2023/04/12 08:11:17;;;;;;;0.50;0.40;;;8.60;99.90;;;;;;5007598;28;20257;-64
2023/04/12 08:13:46;;;;;;;0.75;0.68;;;8.60;99.90;;;;;;5008070;28;20212;-64
2023/04/12 08:16:14;;;;;;;0.60;0.40;;;8.70;99.90;;;;;;5007869;28;20295;-64
2023/04/12 08:18:42;;;;;;;0.50;0.40;;;8.70;99.90;;;;;;5013690;28;20212;-65
2023/04/12 08:21:10;;;;;;;0.50;0.38;;;8.70;99.90;;;;;;5013814;28;20311;-64
2023/04/12 08:23:38;;;;;;;0.50;0.40;;;8.70;99.90;;;;;;5014056;28;20300;-64
2023/04/12 08:26:06;;;;;;;0.70;0.60;;;8.70;99.90;;;;;;5013389;28;20267;-64
2023/04/12 08:28:34;;;;;;;0.60;0.40;;;8.70;99.90;;;;;;5010998;28;20240;-64
2023/04/12 08:31:05;;;;;;;0.50;0.40;;;8.70;99.90;;;;;;4993910;28;20242;-64
2023/04/12 08:33:34;;;;;;;0.60;0.45;;;8.80;99.90;;;;;;4998678;28;20206;-64
2023/04/12 08:36:01;;;;;;;0.50;0.40;;;8.80;99.90;;;;;;4996387;28;20290;-64
2023/04/12 08:38:29;;;;;;;0.50;0.40;;;8.80;99.90;;;;;;4999438;28;20213;-64
2023/04/12 08:41:12;;;;;;;0.80;0.50;;;8.80;99.90;;;;;;5009433;28;20724;-67
2023/04/12 08:43:45;;;;;;;0.65;0.52;;;8.80;99.90;;;;;;5006663;28;20773;-64
2023/04/12 08:46:16;;;;;;;0.60;0.55;;;8.90;99.90;;;;;;5060164;23;20243;-73
2023/04/12 08:48:46;;;;;;;1.23;0.50;;;8.90;99.90;;;;;;5054278;28;20216;-75
2023/04/12 08:51:16;;;;;;;0.50;0.40;;;8.90;99.90;;;;;;5055219;28;20207;-74
2023/04/12 08:53:44;;;;;;;0.60;0.50;;;8.90;99.90;;;;;;5055236;28;20265;-76
2023/04/12 08:56:13;;;;;;;0.50;0.40;;;9.00;99.90;;;;;;5056126;28;20642;-77
2023/04/12 08:58:44;;;;;;;0.60;0.50;;;9.00;99.90;;;;;;5047041;28;20353;-75
2023/04/12 09:01:14;;;;;;;0.63;0.60;;;9.00;99.90;;;;;;5052741;28;20585;-73
2023/04/12 09:03:45;;;;;;;0.60;0.40;;;9.00;99.90;;;;;;5050519;28;20645;-71
2023/04/12 09:06:13;;;;;;;0.60;0.50;;;9.00;99.90;;;;;;5048949;28;20269;-73
2023/04/12 09:08:54;;;;;;;1.35;0.65;;;9.00;99.90;;;;;;5051911;28;20266;-75
2023/04/12 09:11:24;;;;;;;0.60;0.50;;;9.00;99.90;;;;;;5049262;28;20235;-78
2023/04/12 09:13:53;;;;;;;0.70;0.50;;;9.20;99.90;;;;;;5047046;28;20672;-75
2023/04/12 09:16:40;;;;;;;0.57;0.47;;;9.20;99.90;;;;;;5048395;28;20598;-79
2023/04/12 09:19:10;;;;;;;0.50;0.40;;;9.20;99.90;;;;;;5041571;28;20200;-74
2023/04/12 09:21:52;;;;;;;0.50;0.43;;;9.20;99.90;;;;;;5047586;28;20622;-78
2023/04/12 09:24:22;;;;;;;0.60;0.50;;;9.30;99.90;;;;;;5046730;28;20298;-75
2023/04/12 09:27:02;;;;;;;0.60;0.55;;;9.30;99.90;;;;;;5045531;28;21064;-74
2023/04/12 09:29:31;;;;;;;0.50;0.43;;;9.30;99.90;;;;;;5046654;28;20783;-74
2023/04/12 09:32:01;;;;;;;0.50;0.40;;;9.30;99.90;;;;;;5047145;28;20290;-77
2023/04/12 09:34:33;;;;;;;0.60;0.50;;;9.30;99.90;;;;;;5045832;28;20208;-75
2023/04/12 09:37:12;;;;;;;0.60;0.40;;;9.40;99.90;;;;;;5046944;28;20215;-75
2023/04/12 09:39:40;;;;;;;0.70;0.50;;;9.40;99.90;;;;;;5047047;28;20238;-76
2023/04/12 09:42:10;;;;;;;0.50;0.40;;;9.40;99.90;;;;;;5050148;28;20722;-74
2023/04/12 09:44:57;;;;;;;0.50;0.40;;;9.50;99.90;;;;;;5046625;28;20463;-74
2023/04/12 09:47:37;;;;;;;0.70;0.65;;;9.50;99.90;;;;;;5046766;28;20785;-78
2023/04/12 09:50:08;;;;;;;0.50;0.30;;;9.50;99.90;;;;;;5047179;28;20677;-76
2023/04/12 09:52:37;;;;;;;0.50;0.40;;;9.50;99.90;;;;;;5047361;28;20222;-77
2023/04/12 09:55:09;;;;;;;2.08;0.98;;;9.60;99.90;;;;;;5049181;28;20304;-75
2023/04/12 09:57:39;;;;;;;0.60;0.50;;;9.60;99.90;;;;;;5045212;28;20314;-75
2023/04/12 10:00:11;;;;;;;0.50;0.40;;;9.60;99.90;;;;;;5045274;28;20215;-74
2023/04/12 10:02:42;;;;;;;0.60;0.52;;;9.50;99.90;;;;;;5048405;28;20199;-73
2023/04/12 10:05:16;;;;;;;0.88;0.50;;;9.60;99.90;;;;;;5044892;28;20255;-69
2023/04/12 10:07:45;;;;;;;1.05;1.05;;;9.50;99.90;;;;;;5046555;28;20291;-69
2023/04/12 10:10:14;;;;;;;0.73;0.52;;;9.50;99.90;;;;;;5044656;28;20738;-68
2023/04/12 10:12:44;;;;;;;0.70;0.70;;;9.50;99.90;;;;;;5044720;28;20211;-67
2023/04/12 10:15:15;;;;;;;0.50;0.50;;;9.50;99.90;;;;;;5044993;28;20219;-67
2023/04/12 10:17:45;;;;;;;0.50;0.40;;;9.60;99.90;;;;;;5049018;28;20675;-67
2023/04/12 10:20:16;;;;;;;0.50;0.40;;;9.60;99.90;;;;;;5043441;28;20259;-67
2023/04/12 10:22:46;;;;;;;1.80;1.10;;;9.60;99.90;;;;;;5045412;28;20560;-68
2023/04/12 10:25:15;;;;;;;0.70;0.60;;;9.60;99.90;;;;;;5042806;28;20235;-69
2023/04/12 10:27:45;;;;;;;0.60;0.45;;;9.60;99.90;;;;;;5045613;28;20196;-71
2023/04/12 10:30:24;;;;;;;0.50;0.45;;;9.70;99.90;;;;;;5041796;28;20200;-68
2023/04/12 10:33:15;;;;;;;0.50;0.50;;;9.70;99.90;;;;;;5041290;28;20265;-68
2023/04/12 10:35:53;;;;;;;1.02;0.77;;;9.70;99.90;;;;;;5039838;28;20223;-68
2023/04/12 10:38:23;;;;;;;0.75;0.75;;;9.70;99.90;;;;;;5037881;28;20208;-69
2023/04/12 10:41:12;;;;;;;1.08;0.95;;;9.80;99.90;;;;;;5031463;28;20235;-68
2023/04/12 10:43:40;;;;;;;0.50;0.40;;;9.80;99.90;;;;;;5030782;28;20212;-68
2023/04/12 10:46:08;;;;;;;0.60;0.52;;;9.90;99.90;;;;;;5046480;28;20308;-69
2023/04/12 10:48:38;;;;;;;0.50;0.32;;;9.90;99.90;;;;;;5041767;28;20208;-67
2023/04/12 10:51:22;;;;;;;0.60;0.50;;;10.00;99.90;;;;;;5040047;28;20287;-67
2023/04/12 10:53:51;;;;;;;0.90;0.40;;;10.00;99.90;;;;;;5041516;28;20207;-67
2023/04/12 10:56:38;;;;;;;1.00;0.90;;;10.00;99.90;;;;;;5041154;28;20649;-69
2023/04/12 10:59:07;;;;;;;0.60;0.50;;;10.00;99.90;;;;;;5043794;28;20710;-69
2023/04/12 11:01:36;;;;;;;0.50;0.40;;;10.00;99.90;;;;;;5044829;28;20261;-68
2023/04/12 11:04:17;;;;;;;0.98;0.98;;;10.00;99.90;;;;;;5041668;28;20227;-68
2023/04/12 11:06:56;;;;;;;0.65;0.65;;;10.00;99.90;;;;;;5040951;28;20224;-69
2023/04/12 11:09:28;;;;;;;1.40;1.30;;;10.00;99.90;;;;;;5042601;28;20204;-69
2023/04/12 11:11:58;;;;;;;0.52;0.50;;;10.10;99.90;;;;;;5040740;28;20684;-68
2023/04/12 11:14:29;;;;;;;0.50;0.40;;;10.10;99.90;;;;;;5045360;28;20283;-69
2023/04/12 11:17:23;;;;;;;0.60;0.60;;;10.20;99.90;;;;;;5042154;28;20701;-69
2023/04/12 11:19:58;;;;;;;0.60;0.60;;;10.20;99.90;;;;;;5044509;28;20334;-69
2023/04/12 11:22:29;;;;;;;0.50;0.50;;;10.20;99.90;;;;;;5041430;28;20208;-68
2023/04/12 11:24:59;;;;;;;0.65;0.65;;;10.30;99.90;;;;;;5040006;28;20231;-68
2023/04/12 11:27:28;;;;;;;0.68;0.50;;;10.30;99.90;;;;;;5043362;28;20219;-68
2023/04/12 11:29:58;;;;;;;0.63;0.63;;;10.30;99.90;;;;;;5041590;28;20227;-69
2023/04/12 11:32:27;;;;;;;0.50;0.50;;;10.40;99.90;;;;;;5041137;28;20205;-68
2023/04/12 11:34:57;;;;;;;0.50;0.40;;;10.40;99.90;;;;;;5039918;28;20207;-69
2023/04/12 11:37:26;;;;;;;0.90;0.73;;;10.50;99.90;;;;;;5040919;28;20528;-68
2023/04/12 11:39:57;;;;;;;0.50;0.50;;;10.50;99.90;;;;;;5042145;28;20273;-68
2023/04/12 11:42:27;;;;;;;0.57;0.55;;;10.50;99.90;;;;;;5043242;28;20601;-68
2023/04/12 11:44:56;;;;;;;0.70;0.70;;;10.60;99.90;;;;;;5040966;28;20205;-68
2023/04/12 11:47:32;;;;;;;0.60;0.50;;;10.60;99.90;;;;;;5040912;28;20254;-70
2023/04/12 11:50:00;;;;;;;0.60;0.50;;;10.60;99.90;;;;;;5042101;28;20212;-69
2023/04/12 11:52:30;;;;;;;0.50;0.40;;;10.70;99.90;;;;;;5040371;28;20287;-68
2023/04/12 11:55:03;;;;;;;0.50;0.40;;;10.70;99.90;;;;;;5041369;28;20200;-69
2023/04/12 11:57:32;;;;;;;0.50;0.40;;;10.70;99.90;;;;;;5043698;28;20208;-69
2023/04/12 12:00:01;;;;;;;0.70;0.63;;;10.70;99.90;;;;;;5042000;28;20201;-68
2023/04/12 12:02:32;;;;;;;0.50;0.30;;;10.80;99.90;;;;;;5040476;28;20200;-69
2023/04/12 12:05:13;;;;;;;0.60;0.40;;;10.80;99.90;;;;;;5040793;28;20239;-69
2023/04/12 12:07:42;;;;;;;0.50;0.40;;;10.80;99.90;;;;;;5039279;28;20220;-69
2023/04/12 12:10:11;;;;;;;0.50;0.40;;;10.80;99.90;;;;;;5044484;28;20243;-67
2023/04/12 12:12:51;;;;;;;0.50;0.45;;;10.80;99.90;;;;;;5040423;28;20201;-69
2023/04/12 12:15:19;;;;;;;0.50;0.40;;;10.80;99.90;;;;;;5039158;28;20707;-65
2023/04/12 12:17:50;;;;;;;0.60;0.50;;;10.90;99.90;;;;;;5041361;28;20282;-68
2023/04/12 12:20:23;;;;;;;0.70;0.63;;;10.90;99.90;;;;;;5040930;28;20668;-69
2023/04/12 12:22:51;;;;;;;0.77;0.47;;;10.90;99.90;;;;;;5040266;28;20227;-69
2023/04/12 12:25:20;;;;;;;0.60;0.57;;;10.90;99.90;;;;;;5041727;28;20311;-69
2023/04/12 12:27:49;;;;;;;0.60;0.40;;;10.90;99.90;;;;;;5046254;28;20212;-69
2023/04/12 12:30:19;;;;;;;0.50;0.40;;;11.00;99.90;;;;;;5044314;28;20207;-69
2023/04/12 12:32:51;;;;;;;0.55;0.50;;;10.90;99.90;;;;;;5045586;28;20258;-69
2023/04/12 12:35:19;;;;;;;0.50;0.40;;;10.90;99.90;;;;;;5046252;28;20726;-70
2023/04/12 12:37:51;;;;;;;0.50;0.30;;;11.00;99.90;;;;;;5040476;28;20279;-70
2023/04/12 12:40:31;;;;;;;0.60;0.60;;;11.00;99.90;;;;;;5045534;28;20246;-67
2023/04/12 12:42:59;;;;;;;0.50;0.40;;;11.00;99.90;;;;;;5044649;28;20265;-70
2023/04/12 12:45:29;;;;;;;0.60;0.60;;;11.00;99.90;;;;;;5047556;28;20235;-70
2023/04/12 12:47:58;;;;;;;0.50;0.50;;;11.10;99.90;;;;;;5049298;28;20299;-69
2023/04/12 12:50:28;;;;;;;0.50;0.43;;;11.20;99.90;;;;;;5049347;28;20665;-69
2023/04/12 12:52:58;;;;;;;0.60;0.50;;;11.20;99.90;;;;;;5050194;28;20612;-69
2023/04/12 12:55:28;;;;;;;0.60;0.40;;;11.30;99.90;;;;;;5052901;28;20262;-70
2023/04/12 12:57:57;;;;;;;0.50;0.40;;;11.40;99.90;;;;;;5039036;28;20231;-70
2023/04/12 13:00:29;;;;;;;1.67;0.50;;;11.40;99.90;;;;;;5038242;28;20284;-69
2023/04/12 13:02:57;;;;;;;0.60;0.50;;;11.50;99.90;;;;;;5053130;28;20204;-69
2023/04/12 13:05:25;;;;;;;0.60;0.50;;;11.40;99.90;;;;;;5051358;28;20667;-70
2023/04/12 13:07:53;;;;;;;0.50;0.40;;;11.40;99.90;;;;;;5049997;28;20263;-70
2023/04/12 13:10:22;;;;;;;1.55;0.68;;;11.40;99.90;;;;;;5043251;28;20228;-69